Airfield :
LOGIN :

Register | Disclaimer

   EN    FR    IT 

 










Legend :    VFR   Marginal VFR   IFR   Intensive IFR   Very Intensive IFR
Visi :
Ceiling :
>= 8 km
>= 3000ft
5 to 8 km
1000 to 3000 ft
1500m to 5 km
500 to 1000 ft
800 to 1500m
200 to 500 ft
< 800m
< 200 ft
Symbols :   Thunderstorms  Fog  Heavy snow  Heavy precipitations  Wind > 20 kt
SIGMETs :     Misc.  Thunderstorms  Icing  Turbulence  Mountain Waves  Volcanic Ashes







- Airport Elevation : 80 ft
- IATA code : LPL
- Download approach charts


EGGP - Liverpool John Lennon

CURRENT METAR :
  • 200320Z 18006KT 9999 -RA FEW033 BKN047 12/09 Q1010

EXPIRED METARs :
  • 200250Z 22010KT 9999 -RA FEW033 BKN047 12/09 Q1009
  • 200220Z 21010KT 9999 -RA FEW033 BKN047 12/09 Q1009
  • 200150Z 21011KT 9999 FEW049 13/09 Q1010
  • 200120Z 20009KT 9999 FEW049 13/09 Q1010

TAF TAF EGGP
Valid from the 20 at 00:00 until the 21 at 00:00 UTC


192300Z 2000/2024 21009KT 9999 FEW030
TEMPO 2000/2009 8000 -RA
PROB40
TEMPO 2002/2009 4000 RA BKN012
BECMG 2009/2012 11010KT 5000 RA
TEMPO 2012/2024 3000 +RA BKN010
PROB30
TEMPO 2012/2024 9999 NSW BKN008
PROB40
TEMPO 2016/2021 18020G33KT
BECMG 2021/2024 30015G25KT
ATIS : +44 151 907 2000 (option 5 or ext 5150)
Met : +44 871 750 5150
No reported NOTAMs for that airfield.
2 SIGMETs reported for the London FIR (EGTT) :
 
Severe turbulence
EGTT SIGMET 02 VALID 200100/200500 EGRR
EGTT LONDON FIR SEV TURB FCST WI N5500 E00000 - N5418 W00223 - N5500 W00530 - N5500 E00000 SFC/FL060 MOV N 05KT WKN=
Severe mountain waves
EGTT SIGMET 01 VALID 200100/200500 EGRR
EGTT LONDON FIR SEV MTW FCST WI N5500 E00020 - N5416 E00049 - N5314 W00250 - N5500 W00530 - N5500 E00020 FL030/250 MOV N 10KT WKN=



MET'MAP, your aeronautical weather chart ! - Copyright ORBIFLY December 2007 - Disclaimer

ORBIFLY MET'MAP TEAM :

Programming & Development : Alexandra Zaïnal
Concept & Development : Baudouin d'Aumeries
Co-Development & Prog : Marc-Olivier Méhu
Technical & hardware support : Manuel Goepfert

Contact : metmap@orbifly.com




SOURCES & CREDITS :

   NOAA